Time;durP1;ratioP1;P1;durP2;ratioP2;P2;SDS_P1;SDS_P2;PMS_P1;PMS_P2;Temp;Humidity;BMP_temperature;BMP_pressure;BME280_temperature;BME280_humidity;BME280_pressure;Samples;Min_cycle;Max_cycle;Signal;HPM_P1;HPM_P2
2022/02/10 00:21:59;;;;;;;30.40;22.13;;;;;;;;;;4241768;33;20026;-81
2022/02/10 00:24:47;;;;;;;34.40;22.52;;;;;;;;;;4269052;33;20052;-80
2022/02/10 00:35:26;;;;;;;38.95;25.05;;;;;;;;;;4258574;33;20459;-80
2022/02/10 00:37:58;;;;;;;45.55;27.23;;;;;;;;;;4258533;33;20089;-80
2022/02/10 00:40:28;;;;;;;43.67;27.45;;;;;;;;;;4266631;33;20085;-80
2022/02/10 00:42:57;;;;;;;38.17;25.27;;;;;;;;;;4244430;33;20109;-80
2022/02/10 00:45:28;;;;;;;44.70;26.73;;;;;;;;;;4254554;33;20026;-80
2022/02/10 00:50:28;;;;;;;43.47;28.42;;;;;;;;;;4244389;33;20029;-80
2022/02/10 00:53:02;;;;;;;45.63;28.38;;;;;;;;;;4244593;33;20038;-81
2022/02/10 00:55:31;;;;;;;43.10;26.90;;;;;;;;;;4247091;33;20045;-79
2022/02/10 00:58:05;;;;;;;49.58;29.90;;;;;;;;;;4246771;33;20078;-80
2022/02/10 01:02:13;;;;;;;47.83;29.80;;;;;;;;;;4257467;33;20018;-81
2022/02/10 01:31:24;;;;;;;56.78;33.97;;;;;;;;;;4246048;33;20049;-82
2022/02/10 01:33:49;;;;;;;;;;;;;;;;;;4246487;33;20136;-83
2022/02/10 01:36:15;;;;;;;63.70;36.65;;;;;;;;;;4268488;33;19942;-81
2022/02/10 01:38:40;;;;;;;;;;;;;;;;;;4286224;28;20049;-71
2022/02/10 01:41:44;;;;;;;65.03;35.72;;;;;;;;;;4298662;33;19986;-71
2022/02/10 02:05:41;;;;;;;47.33;31.65;;;;;;;;;;4289247;33;20094;-71
2022/02/10 02:08:08;;;;;;;57.08;34.03;;;;;;;;;;4298438;33;20037;-71
2022/02/10 02:10:33;;;;;;;48.45;31.00;;;;;;;;;;4298289;33;20055;-71
2022/02/10 02:12:58;;;;;;;;;;;;;;;;;;4289609;33;20033;-71
2022/02/10 02:15:25;;;;;;;58.63;32.05;;;;;;;;;;4298311;33;20364;-70
2022/02/10 02:17:50;;;;;;;59.30;34.65;;;;;;;;;;4299148;33;20025;-72
2022/02/10 02:20:15;;;;;;;;;;;;;;;;;;4288864;33;20453;-71
2022/02/10 02:22:40;;;;;;;61.90;34.72;;;;;;;;;;4287631;33;19944;-70
2022/02/10 02:25:05;;;;;;;;;;;;;;;;;;4286280;33;20399;-71
2022/02/10 02:27:43;;;;;;;53.65;32.90;;;;;;;;;;4289541;33;19982;-71
2022/02/10 02:30:16;;;;;;;56.22;33.55;;;;;;;;;;4288504;33;20532;-71
2022/02/10 02:32:51;;;;;;;61.33;35.08;;;;;;;;;;4287932;33;20184;-71
2022/02/10 02:35:35;;;;;;;55.85;34.10;;;;;;;;;;4288414;33;20120;-71
2022/02/10 02:38:19;;;;;;;60.53;36.88;;;;;;;;;;4301882;33;20108;-72
2022/02/10 03:05:33;;;;;;;74.60;40.80;;;;;;;;;;4294007;33;20522;-71
2022/02/10 03:08:00;;;;;;;74.30;40.50;;;;;;;;;;4285754;33;20108;-71
2022/02/10 03:10:57;;;;;;;75.35;41.33;;;;;;;;;;4287598;33;20094;-72
2022/02/10 03:13:28;;;;;;;79.80;39.88;;;;;;;;;;4287017;33;20055;-71
2022/02/10 03:16:29;;;;;;;78.87;41.90;;;;;;;;;;4286835;33;20063;-70
2022/02/10 04:00:22;;;;;;;86.00;42.03;;;;;;;;;;4286624;33;20051;-71
2022/02/10 04:10:48;;;;;;;80.25;42.25;;;;;;;;;;4287890;33;19948;-71
2022/02/10 04:16:05;;;;;;;87.90;44.15;;;;;;;;;;4288051;33;20371;-71
2022/02/10 05:15:07;;;;;;;134.07;52.42;;;;;;;;;;4289178;33;20355;-71
2022/02/10 05:33:21;;;;;;;34.58;18.27;;;;;;;;;;4289749;33;20120;-71
2022/02/10 05:35:50;;;;;;;36.85;19.58;;;;;;;;;;4289249;33;20024;-72
2022/02/10 05:38:29;;;;;;;29.75;18.45;;;;;;;;;;4287690;33;20076;-71
2022/02/10 05:41:42;;;;;;;30.52;19.02;;;;;;;;;;4286497;33;20057;-71
2022/02/10 05:47:00;;;;;;;36.15;21.58;;;;;;;;;;4275025;33;20472;-71
2022/02/10 05:57:07;;;;;;;35.28;20.10;;;;;;;;;;4274811;33;20052;-73
2022/02/10 06:00:17;;;;;;;30.55;19.00;;;;;;;;;;4274663;33;20025;-72
2022/02/10 06:47:03;;;;;;;16.75;10.15;;;;;;;;;;4287026;33;20032;-72
2022/02/10 07:02:45;;;;;;;17.10;6.62;;;;;;;;;;4287628;33;20214;-72
2022/02/10 07:09:21;;;;;;;13.85;6.28;;;;;;;;;;4287144;33;20025;-72
2022/02/10 07:14:54;;;;;;;15.98;4.78;;;;;;;;;;4287025;33;20080;-72
2022/02/10 07:46:33;;;;;;;12.40;5.87;;;;;;;;;;4287179;33;20083;-72
2022/02/10 07:47:47;;;;;;;11.27;5.25;;;;;;;;;;4287210;33;20046;-72
2022/02/10 07:56:10;;;;;;;13.68;5.35;;;;;;;;;;4241489;33;20068;-72
2022/02/10 07:59:00;;;;;;;13.40;5.57;;;;;;;;;;4242382;33;20411;-71
2022/02/10 08:04:47;;;;;;;13.73;6.45;;;;;;;;;;4275781;33;20052;-72
2022/02/10 08:26:58;;;;;;;17.35;7.30;;;;;;;;;;4290011;33;20040;-72
2022/02/10 08:49:38;;;;;;;13.35;7.03;;;;;;;;;;4288645;33;20084;-72
2022/02/10 08:51:40;;;;;;;14.75;5.87;;;;;;;;;;4303878;33;20171;-71
2022/02/10 08:56:40;;;;;;;10.98;4.57;;;;;;;;;;4302827;33;20099;-72
2022/02/10 08:59:48;;;;;;;20.83;6.82;;;;;;;;;;4301118;33;20093;-72
2022/02/10 09:05:14;;;;;;;14.52;4.40;;;;;;;;;;4303511;33;20051;-72
2022/02/10 09:24:04;;;;;;;;;;;;;;;;;;4302765;33;20442;-71
2022/02/10 09:55:52;;;;;;;;;;;;;;;;;;4303067;33;20036;-71
2022/02/10 09:58:36;;;;;;;6.93;3.08;;;;;;;;;;4302336;33;19950;-71
2022/02/10 10:01:33;;;;;;;7.10;2.50;;;;;;;;;;4302331;33;20017;-71
2022/02/10 10:04:05;;;;;;;12.48;2.90;;;;;;;;;;4301136;33;20043;-71
2022/02/10 10:06:56;;;;;;;13.55;3.72;;;;;;;;;;4301807;33;20473;-71
2022/02/10 10:15:08;;;;;;;7.90;3.03;;;;;;;;;;4302750;33;20025;-72
2022/02/10 10:17:51;;;;;;;6.78;2.55;;;;;;;;;;4302934;33;20048;-70
2022/02/10 10:20:38;;;;;;;10.65;2.50;;;;;;;;;;4301026;33;20201;-70
2022/02/10 10:46:54;;;;;;;8.88;4.12;;;;;;;;;;4302143;33;20043;-72
2022/02/10 10:50:47;;;;;;;7.20;2.53;;;;;;;;;;4302050;33;20048;-71
2022/02/10 10:58:34;;;;;;;16.30;4.53;;;;;;;;;;4300685;33;20021;-72
2022/02/10 11:03:39;;;;;;;14.95;3.17;;;;;;;;;;4300881;33;20025;-70
2022/02/10 11:38:02;;;;;;;11.73;2.55;;;;;;;;;;4301490;33;20125;-70
2022/02/10 11:40:29;;;;;;;13.40;2.58;;;;;;;;;;4301234;33;20028;-70
2022/02/10 11:43:26;;;;;;;10.63;2.22;;;;;;;;;;4311767;33;20075;-71
2022/02/10 12:00:54;;;;;;;9.93;2.70;;;;;;;;;;4301820;33;20063;-71
2022/02/10 12:29:41;;;;;;;32.17;4.68;;;;;;;;;;4301659;33;20354;-71
2022/02/10 14:09:09;;;;;;;13.88;2.47;;;;;;;;;;4303482;33;20051;-71
2022/02/10 14:16:57;;;;;;;;;;;;;;;;;;4303434;33;20093;-71
2022/02/10 14:27:18;;;;;;;11.12;1.95;;;;;;;;;;4303007;33;20059;-70
2022/02/10 14:29:44;;;;;;;12.70;2.30;;;;;;;;;;4312709;33;20025;-71
2022/02/10 14:32:10;;;;;;;;;;;;;;;;;;4302342;33;20087;-71
2022/02/10 14:34:36;;;;;;;10.52;2.75;;;;;;;;;;4303081;33;19955;-70
2022/02/10 14:37:19;;;;;;;;;;;;;;;;;;4312534;33;20391;-71
2022/02/10 14:40:12;;;;;;;12.98;2.40;;;;;;;;;;4312226;33;19979;-72
2022/02/10 15:29:05;;;;;;;12.82;2.95;;;;;;;;;;4301370;33;20056;-71
2022/02/10 15:50:05;;;;;;;13.40;2.90;;;;;;;;;;4302379;33;20040;-72
2022/02/10 16:17:04;;;;;;;7.90;2.47;;;;;;;;;;4302424;33;20101;-72
2022/02/10 16:19:31;;;;;;;15.98;2.85;;;;;;;;;;4299178;33;20084;-71
2022/02/10 16:22:12;;;;;;;8.32;2.72;;;;;;;;;;4299578;33;20131;-70
2022/02/10 16:27:16;;;;;;;9.13;2.90;;;;;;;;;;4304671;33;20025;-70
2022/02/10 16:29:41;;;;;;;12.10;3.22;;;;;;;;;;4304410;33;20049;-71
2022/02/10 16:32:06;;;;;;;;;;;;;;;;;;4304021;33;20032;-70
2022/02/10 16:34:32;;;;;;;8.02;2.60;;;;;;;;;;4303393;33;19950;-70
2022/02/10 16:36:59;;;;;;;;;;;;;;;;;;4301839;33;20107;-70
2022/02/10 16:39:24;;;;;;;18.13;3.17;;;;;;;;;;4302010;33;19949;-71
2022/02/10 16:41:52;;;;;;;;;;;;;;;;;;4304243;33;20116;-70
2022/02/10 16:44:18;;;;;;;12.88;2.35;;;;;;;;;;4307127;33;19936;-71
2022/02/10 16:46:43;;;;;;;;;;;;;;;;;;4307137;33;20028;-71
2022/02/10 16:49:08;;;;;;;9.93;2.50;;;;;;;;;;4306268;33;19936;-70
2022/02/10 16:51:35;;;;;;;;;;;;;;;;;;4305404;33;20479;-70
2022/02/10 16:54:10;;;;;;;5.87;2.17;;;;;;;;;;4303229;33;19951;-71
2022/02/10 16:56:47;;;;;;;9.15;2.50;;;;;;;;;;4303351;33;20025;-71
2022/02/10 16:59:28;;;;;;;10.27;2.92;;;;;;;;;;4303820;33;20041;-72
2022/02/10 17:04:51;;;;;;;11.77;2.35;;;;;;;;;;4304687;33;20033;-72
2022/02/10 17:20:49;;;;;;;;;;;;;;;;;;4302741;33;20438;-70
2022/02/10 17:26:12;;;;;;;11.60;2.67;;;;;;;;;;4292292;33;20044;-72
2022/02/10 17:28:39;;;;;;;12.02;2.87;;;;;;;;;;4303129;33;20024;-71
2022/02/10 17:31:41;;;;;;;9.48;2.90;;;;;;;;;;4282747;33;20051;-70
2022/02/10 17:36:44;;;;;;;11.75;3.03;;;;;;;;;;4286674;33;20055;-71
2022/02/10 17:44:36;;;;;;;;;;;;;;;;;;4301983;33;20028;-71
2022/02/10 17:52:33;;;;;;;18.20;3.47;;;;;;;;;;4304930;33;20131;-71
2022/02/10 17:54:58;;;;;;;9.07;2.75;;;;;;;;;;4309136;33;20079;-70
2022/02/10 17:57:25;;;;;;;;;;;;;;;;;;4312042;33;20113;-71
2022/02/10 17:59:51;;;;;;;14.73;2.65;;;;;;;;;;4301032;33;20250;-71
2022/02/10 18:02:16;;;;;;;;;;;;;;;;;;4303164;33;20449;-72
2022/02/10 18:04:41;;;;;;;13.32;2.80;;;;;;;;;;4302908;33;19935;-71
2022/02/10 18:07:08;;;;;;;;;;;;;;;;;;4302171;33;20158;-70
2022/02/10 18:10:03;;;;;;;7.50;2.28;;;;;;;;;;4301781;33;19946;-71
2022/02/10 18:13:05;;;;;;;8.00;2.78;;;;;;;;;;4295305;33;20133;-71
2022/02/10 18:15:22;;;;;;;10.52;2.70;;;;;;;;;;4294597;33;20095;-69
2022/02/10 18:17:59;;;;;;;8.63;2.78;;;;;;;;;;4288285;33;20474;-70
2022/02/10 18:20:31;;;;;;;12.43;2.70;;;;;;;;;;4287939;33;20025;-70
2022/02/10 18:23:04;;;;;;;11.63;2.90;;;;;;;;;;4296864;33;20473;-70
2022/02/10 18:25:49;;;;;;;7.97;3.03;;;;;;;;;;4299487;33;20104;-70
2022/02/10 18:33:36;;;;;;;10.33;2.53;;;;;;;;;;4301984;33;19946;-70
2022/02/10 19:08:37;;;;;;;12.45;2.95;;;;;;;;;;4302193;33;20051;-69
2022/02/10 19:11:07;;;;;;;16.27;3.70;;;;;;;;;;4300546;33;20021;-71
2022/02/10 19:13:32;;;;;;;14.98;4.05;;;;;;;;;;4302152;33;20062;-70
2022/02/10 19:15:57;;;;;;;;;;;;;;;;;;4303296;33;20037;-69
2022/02/10 19:18:23;;;;;;;9.43;2.62;;;;;;;;;;4301445;33;19992;-69
2022/02/10 19:20:48;;;;;;;;;;;;;;;;;;4301192;33;20040;-71
2022/02/10 19:23:13;;;;;;;11.57;3.47;;;;;;;;;;4299615;33;19955;-70
2022/02/10 19:25:38;;;;;;;;;;;;;;;;;;4302681;33;20144;-69
2022/02/10 19:28:04;;;;;;;16.90;5.32;;;;;;;;;;4299885;33;19975;-69
2022/02/10 19:30:31;;;;;;;;;;;;;;;;;;4301557;33;20408;-70
2022/02/10 19:32:59;;;;;;;13.10;3.55;;;;;;;;;;4300616;33;20357;-70
2022/02/10 19:35:27;;;;;;;8.93;3.12;;;;;;;;;;4300809;33;20052;-70
2022/02/10 19:37:56;;;;;;;31.90;4.80;;;;;;;;;;4299307;33;20021;-70
2022/02/10 19:40:22;;;;;;;13.23;3.62;;;;;;;;;;4301003;33;20032;-71
2022/02/10 19:42:49;;;;;;;;;;;;;;;;;;4300654;33;20062;-71
2022/02/10 19:45:14;;;;;;;24.70;5.33;;;;;;;;;;4304101;33;19954;-70
2022/02/10 19:47:40;;;;;;;;;;;;;;;;;;4301031;33;20029;-70
2022/02/10 19:50:11;;;;;;;19.08;3.40;;;;;;;;;;4300419;33;19947;-70
2022/02/10 19:52:39;;;;;;;16.25;3.17;;;;;;;;;;4302143;33;20155;-71
2022/02/10 19:55:05;;;;;;;8.98;3.22;;;;;;;;;;4300890;33;20051;-70
2022/02/10 19:57:33;;;;;;;11.55;2.47;;;;;;;;;;4287882;33;20142;-69
2022/02/10 19:59:59;;;;;;;10.05;2.97;;;;;;;;;;4297758;33;20029;-70
2022/02/10 20:02:25;;;;;;;11.60;3.05;;;;;;;;;;4305569;33;20028;-70
2022/02/10 20:04:50;;;;;;;;;;;;;;;;;;4306352;33;20029;-69
2022/02/10 20:07:16;;;;;;;11.88;3.14;;;;;;;;;;4307100;33;19987;-70
2022/02/10 20:09:42;;;;;;;9.98;3.28;;;;;;;;;;4306818;33;20095;-69
2022/02/10 20:12:07;;;;;;;;;;;;;;;;;;4309255;33;20028;-69
2022/02/10 20:14:32;;;;;;;7.47;2.78;;;;;;;;;;4307081;33;19974;-70
2022/02/10 20:16:57;;;;;;;;;;;;;;;;;;4307063;33;20148;-70
2022/02/10 20:19:23;;;;;;;14.15;2.70;;;;;;;;;;4305802;33;19939;-70
2022/02/10 20:21:48;;;;;;;;;;;;;;;;;;4306089;33;20056;-71
2022/02/10 20:24:14;;;;;;;12.23;4.40;;;;;;;;;;4305501;33;19940;-70
2022/02/10 20:26:39;;;;;;;;;;;;;;;;;;4304353;33;20054;-70
2022/02/10 20:29:05;;;;;;;15.43;3.08;;;;;;;;;;4306342;33;19936;-72
2022/02/10 20:31:30;;;;;;;;;;;;;;;;;;4308540;33;20148;-71
2022/02/10 20:33:56;;;;;;;9.75;2.60;;;;;;;;;;4306895;33;19986;-70
2022/02/10 20:36:21;;;;;;;;;;;;;;;;;;4304745;33;20025;-70
2022/02/10 20:38:50;;;;;;;14.80;2.80;;;;;;;;;;4304655;33;20007;-70
2022/02/10 20:41:17;;;;;;;6.70;2.17;;;;;;;;;;4308329;33;20021;-68
2022/02/10 20:43:44;;;;;;;13.15;2.53;;;;;;;;;;4307272;33;20025;-69
2022/02/10 20:46:12;;;;;;;10.35;2.62;;;;;;;;;;4304941;33;20028;-69
2022/02/10 20:48:39;;;;;;;10.20;2.83;;;;;;;;;;4304516;33;20060;-69
2022/02/10 20:51:07;;;;;;;7.70;2.87;;;;;;;;;;4303673;33;20041;-70
2022/02/10 20:53:32;;;;;;;18.75;3.28;;;;;;;;;;4304605;33;20028;-69
2022/02/10 20:55:57;;;;;;;;;;;;;;;;;;4306508;33;20080;-69
2022/02/10 20:58:25;;;;;;;14.32;2.95;;;;;;;;;;4303593;33;19977;-69
2022/02/10 21:00:52;;;;;;;8.40;3.05;;;;;;;;;;4304305;33;20028;-70
2022/02/10 21:03:21;;;;;;;12.45;2.50;;;;;;;;;;4303038;33;20055;-69
2022/02/10 21:05:47;;;;;;;10.75;2.47;;;;;;;;;;4292090;33;20033;-70
2022/02/10 21:10:56;;;;;;;10.77;2.47;;;;;;;;;;4289795;33;20067;-69
2022/02/10 21:13:23;;;;;;;;;;;;;;;;;;4294081;33;20040;-69
2022/02/10 21:15:48;;;;;;;13.20;2.83;;;;;;;;;;4311372;33;19958;-70
2022/02/10 21:18:15;;;;;;;;;;;;;;;;;;4318211;33;20373;-69
2022/02/10 21:20:41;;;;;;;12.07;3.45;;;;;;;;;;4312052;33;19944;-69
2022/02/10 21:25:36;;;;;;;;;;;;;;;;;;4315768;33;20453;-69
2022/02/10 21:28:08;;;;;;;11.43;2.67;;;;;;;;;;4318045;33;19943;-71
2022/02/10 21:30:33;;;;;;;8.82;2.30;;;;;;;;;;4305327;33;20028;-70
2022/02/10 21:33:01;;;;;;;;;;;;;;;;;;4306316;33;20099;-70
2022/02/10 21:35:45;;;;;;;;;;;;;;;;;;4303974;33;20115;-70
2022/02/10 21:38:19;;;;;;;18.62;5.22;;;;;;;;;;4302732;33;19936;-70
2022/02/10 21:41:29;;;;;;;15.32;2.95;;;;;;;;;;4303035;33;20406;-71
2022/02/10 21:44:51;;;;;;;16.83;4.57;;;;;;;;;;4303948;33;20392;-68
2022/02/10 22:18:52;;;;;;;14.52;2.97;;;;;;;;;;4303399;33;20386;-69
2022/02/10 22:21:28;;;;;;;10.77;2.83;;;;;;;;;;4301137;33;20111;-69
2022/02/10 22:23:53;;;;;;;5.72;2.15;;;;;;;;;;4301193;33;20021;-70
2022/02/10 22:26:22;;;;;;;;;;;;;;;;;;4302052;33;20501;-69
2022/02/10 22:29:11;;;;;;;11.60;3.50;;;;;;;;;;4302098;33;19983;-69
2022/02/10 22:31:58;;;;;;;12.20;3.03;;;;;;;;;;4302124;33;20037;-70
2022/02/10 22:34:35;;;;;;;9.50;2.45;;;;;;;;;;4302172;33;20037;-70
2022/02/10 22:37:02;;;;;;;20.42;3.35;;;;;;;;;;4302427;33;20016;-70
2022/02/10 22:39:29;;;;;;;25.10;3.20;;;;;;;;;;4300679;33;20127;-68
2022/02/10 22:41:54;;;;;;;16.08;2.33;;;;;;;;;;4302211;33;20074;-70
2022/02/10 22:44:19;;;;;;;16.42;3.72;;;;;;;;;;4302150;33;20025;-70
2022/02/10 22:46:45;;;;;;;;;;;;;;;;;;4303840;33;20122;-70
2022/02/10 22:49:11;;;;;;;14.48;2.37;;;;;;;;;;4300735;33;19940;-69
2022/02/10 22:51:36;;;;;;;;;;;;;;;;;;4302623;33;20032;-69
2022/02/10 22:54:03;;;;;;;8.14;2.60;;;;;;;;;;4301130;33;20351;-69
2022/02/10 22:56:29;;;;;;;21.60;2.72;;;;;;;;;;4302335;33;20057;-70
2022/02/10 22:58:54;;;;;;;;;;;;;;;;;;4302129;33;20041;-70
2022/02/10 23:01:19;;;;;;;7.18;2.10;;;;;;;;;;4302776;33;19978;-69
2022/02/10 23:03:44;;;;;;;;;;;;;;;;;;4299620;33;20484;-69
2022/02/10 23:06:11;;;;;;;14.40;2.30;;;;;;;;;;4301332;33;19944;-69
2022/02/10 23:08:36;;;;;;;14.95;2.58;;;;;;;;;;4301206;33;20544;-69
2022/02/10 23:11:01;;;;;;;;;;;;;;;;;;4301648;33;20040;-70
2022/02/10 23:13:30;;;;;;;21.87;3.33;;;;;;;;;;4303485;33;19975;-70
2022/02/10 23:15:59;;;;;;;14.95;4.25;;;;;;;;;;4301518;33;20450;-69
2022/02/10 23:18:28;;;;;;;14.23;2.90;;;;;;;;;;4300024;33;20112;-70
2022/02/10 23:20:58;;;;;;;11.02;2.58;;;;;;;;;;4300837;33;20029;-70
2022/02/10 23:23:24;;;;;;;19.65;4.57;;;;;;;;;;4303065;33;20107;-69
2022/02/10 23:25:50;;;;;;;14.10;3.30;;;;;;;;;;4302757;33;20168;-69
2022/02/10 23:28:15;;;;;;;;;;;;;;;;;;4302844;33;20116;-69
2022/02/10 23:30:45;;;;;;;13.77;2.67;;;;;;;;;;4312155;33;19948;-70
2022/02/10 23:33:18;;;;;;;21.12;5.50;;;;;;;;;;4305953;33;20028;-70
2022/02/10 23:38:17;;;;;;;18.12;3.90;;;;;;;;;;4302068;33;20074;-69
2022/02/10 23:41:19;;;;;;;10.05;2.20;;;;;;;;;;4301516;33;20032;-70
2022/02/10 23:43:30;;;;;;;10.93;2.58;;;;;;;;;;4301273;33;20376;-69
2022/02/10 23:45:56;;;;;;;;;;;;;;;;;;4290130;33;20068;-71
2022/02/10 23:48:21;;;;;;;14.02;2.95;;;;;;;;;;4300973;33;19971;-70
2022/02/10 23:50:46;;;;;;;;;;;;;;;;;;4298922;33;20068;-70
2022/02/10 23:53:12;;;;;;;13.62;2.67;;;;;;;;;;4301931;33;19947;-69
2022/02/10 23:55:39;;;;;;;10.05;2.80;;;;;;;;;;4300505;33;20269;-69
